Terminal Aerodrome Forecast
Issued by NWS Cleveland, OH

Home | Current Version | Previous Version | Graphics & Text | Print | Product List | Glossary Off
Versions: 1 2 3 4 5 6 7 8 9 10 11 12 13 14 15 16 17 18 19 20

000
FTUS41 KCLE 252330
TAFYNG
TAF
KYNG 252330Z 2600/2624 35008KT P6SM BKN250
     FM260700 30003KT 6SM BR SKC
      TEMPO 2609/2613 3SM BR
     FM261600 35007KT P6SM SCT035=

USA.gov is the U.S. government's official web portal to all federal, state and local government web resources and services.